createdAt,value
2019-03-30T00:02:28.409Z,6.70
2019-03-30T00:04:59.181Z,9.13
2019-03-30T00:07:29.282Z,15.43
2019-03-30T00:09:59.395Z,6.22
2019-03-30T00:12:29.455Z,5.42
2019-03-30T00:14:59.434Z,6.65
2019-03-30T00:17:29.583Z,17.92
2019-03-30T00:19:59.659Z,6.05
2019-03-30T00:22:29.609Z,9.70
2019-03-30T00:24:59.815Z,6.58
2019-03-30T00:27:29.886Z,6.70
2019-03-30T00:29:59.987Z,10.78
2019-03-30T00:32:30.230Z,8.05
2019-03-30T00:35:00.394Z,4.72
2019-03-30T00:37:30.543Z,3.98
2019-03-30T00:40:00.682Z,4.00
2019-03-30T00:42:30.768Z,6.47
2019-03-30T00:45:08.557Z,5.12
2019-03-30T00:47:38.575Z,9.63
2019-03-30T00:50:08.635Z,10.98
2019-03-30T00:52:38.737Z,5.95
2019-03-30T00:55:08.696Z,7.28
2019-03-30T00:57:38.636Z,7.70
2019-03-30T01:00:09.059Z,4.03
2019-03-30T01:02:39.042Z,2.47
2019-03-30T01:05:09.199Z,4.42
2019-03-30T01:07:39.432Z,4.58
2019-03-30T01:10:09.500Z,7.85
2019-03-30T01:12:39.498Z,5.03
2019-03-30T01:15:10.385Z,2.33
2019-03-30T01:17:40.815Z,4.78
2019-03-30T01:20:10.963Z,3.55
2019-03-30T01:22:41.262Z,10.20
2019-03-30T01:25:11.381Z,3.45
2019-03-30T01:27:41.469Z,3.62
2019-03-30T01:30:22.420Z,5.80
2019-03-30T01:32:43.996Z,4.12
2019-03-30T01:35:14.103Z,10.60
2019-03-30T01:37:44.179Z,9.60
2019-03-30T01:40:14.284Z,5.65
2019-03-30T01:42:44.358Z,3.95
2019-03-30T01:45:14.594Z,4.25
2019-03-30T01:47:44.533Z,5.37
2019-03-30T01:50:17.529Z,8.63
2019-03-30T01:52:46.442Z,9.15
2019-03-30T01:55:16.403Z,1.72
2019-03-30T01:57:46.369Z,2.45
2019-03-30T02:00:17.793Z,4.80
2019-03-30T02:02:47.722Z,7.03
2019-03-30T02:05:17.676Z,3.10
2019-03-30T02:07:47.827Z,3.55
2019-03-30T02:10:33.112Z,6.45
2019-03-30T02:13:03.203Z,3.60
2019-03-30T02:15:33.293Z,4.33
2019-03-30T02:18:03.312Z,6.97
2019-03-30T02:20:44.061Z,10.68
2019-03-30T02:23:14.150Z,3.77
2019-03-30T02:25:44.157Z,3.45
2019-03-30T02:28:14.191Z,4.25
2019-03-30T02:30:44.272Z,6.08
2019-03-30T02:33:14.440Z,13.10
2019-03-30T02:35:44.488Z,7.67
2019-03-30T02:38:14.339Z,3.50
2019-03-30T02:40:44.331Z,2.45
2019-03-30T02:43:14.547Z,2.40
2019-03-30T02:45:44.593Z,2.83
2019-03-30T02:48:15.871Z,7.58
2019-03-30T02:50:49.877Z,9.95
2019-03-30T02:53:17.532Z,4.20
2019-03-30T02:55:47.507Z,1.57
2019-03-30T02:58:21.847Z,2.00
2019-03-30T03:00:52.412Z,9.78
2019-03-30T03:03:22.374Z,4.45
2019-03-30T03:05:52.468Z,5.12
2019-03-30T03:08:22.527Z,8.78
2019-03-30T03:10:52.559Z,6.33
2019-03-30T03:13:22.654Z,2.17
2019-03-30T03:15:52.743Z,3.70
2019-03-30T03:18:22.771Z,3.95
2019-03-30T03:21:08.002Z,7.05
2019-03-30T03:23:48.200Z,9.63
2019-03-30T03:26:39.545Z,4.20
2019-03-30T03:29:14.152Z,6.90
2019-03-30T03:31:44.245Z,4.08
2019-03-30T03:34:14.230Z,8.88
2019-03-30T03:36:44.279Z,3.42
2019-03-30T03:39:14.462Z,3.25
2019-03-30T03:41:44.472Z,4.33
2019-03-30T03:44:14.487Z,3.50
2019-03-30T03:46:44.569Z,5.87
2019-03-30T03:49:14.663Z,2.75
2019-03-30T03:51:45.206Z,7.50
2019-03-30T03:54:15.655Z,2.87
2019-03-30T03:56:48.957Z,4.05
2019-03-30T03:59:20.524Z,4.75
2019-03-30T04:01:52.580Z,3.80
2019-03-30T04:04:27.367Z,4.85
2019-03-30T04:07:01.472Z,3.50
2019-03-30T04:09:34.624Z,8.10
2019-03-30T04:12:07.783Z,4.70
2019-03-30T04:14:40.793Z,3.52
2019-03-30T04:17:10.841Z,9.40
2019-03-30T04:19:41.556Z,4.40
2019-03-30T04:22:11.700Z,3.45
2019-03-30T04:24:41.754Z,2.83
2019-03-30T04:27:11.870Z,3.55
2019-03-30T04:29:42.249Z,8.25
2019-03-30T04:32:12.281Z,3.47
2019-03-30T04:34:42.387Z,9.95
2019-03-30T04:37:12.459Z,5.15
2019-03-30T04:39:42.531Z,4.30
2019-03-30T04:42:12.563Z,2.77
2019-03-30T04:44:42.539Z,2.90
2019-03-30T04:47:12.493Z,2.67
2019-03-30T04:49:42.598Z,4.92
2019-03-30T04:52:13.145Z,2.55
2019-03-30T04:54:43.214Z,2.22
2019-03-30T04:57:13.326Z,7.78
2019-03-30T04:59:43.486Z,4.00
2019-03-30T05:02:13.543Z,2.62
2019-03-30T05:04:43.711Z,2.25
2019-03-30T05:07:13.832Z,3.25
2019-03-30T05:09:43.946Z,10.35
2019-03-30T05:12:17.096Z,1.72
2019-03-30T05:14:47.189Z,2.98
2019-03-30T05:17:17.293Z,3.27
2019-03-30T05:19:47.339Z,6.17
2019-03-30T05:22:20.131Z,2.85
2019-03-30T05:24:50.122Z,6.10
2019-03-30T05:27:20.267Z,4.67
2019-03-30T05:29:50.444Z,2.87
2019-03-30T05:32:20.812Z,2.25
2019-03-30T05:34:50.825Z,3.15
2019-03-30T05:37:22.413Z,2.17
2019-03-30T05:39:52.382Z,8.10
2019-03-30T05:42:22.480Z,3.58
2019-03-30T05:44:52.594Z,3.85
2019-03-30T05:47:22.672Z,3.90
2019-03-30T05:49:52.985Z,2.65
2019-03-30T05:52:26.758Z,5.10
2019-03-30T05:54:54.749Z,5.78
2019-03-30T05:57:24.849Z,7.67
2019-03-30T05:59:56.039Z,2.83
2019-03-30T06:02:26.575Z,23.73
2019-03-30T06:04:58.595Z,3.90
2019-03-30T06:07:28.385Z,5.12
2019-03-30T06:09:58.385Z,9.28
2019-03-30T06:12:28.407Z,5.83
2019-03-30T06:14:58.518Z,3.60
2019-03-30T06:17:28.552Z,14.68
2019-03-30T06:19:58.589Z,4.35
2019-03-30T06:22:39.793Z,4.00
2019-03-30T06:25:00.333Z,3.40
2019-03-30T06:27:30.602Z,3.62
2019-03-30T06:30:25.328Z,2.85
2019-03-30T06:32:55.278Z,4.70
2019-03-30T06:35:25.314Z,5.25
2019-03-30T06:37:55.419Z,7.95
2019-03-30T06:40:25.367Z,6.05
2019-03-30T06:42:55.364Z,9.23
2019-03-30T06:45:25.382Z,3.25
2019-03-30T06:47:55.407Z,4.53
2019-03-30T06:50:25.505Z,4.85
2019-03-30T06:52:58.137Z,10.32
2019-03-30T06:55:27.391Z,5.12
2019-03-30T06:57:57.472Z,8.65
2019-03-30T07:00:37.803Z,8.60
2019-03-30T07:03:08.402Z,7.65
2019-03-30T07:05:42.457Z,5.33
2019-03-30T07:08:16.490Z,13.43
2019-03-30T07:10:47.034Z,5.17
2019-03-30T07:13:17.401Z,5.28
2019-03-30T07:15:51.326Z,5.72
2019-03-30T07:18:23.073Z,7.40
2019-03-30T07:20:53.085Z,4.08
2019-03-30T07:23:23.260Z,7.35
2019-03-30T07:25:53.251Z,4.55
2019-03-30T07:28:23.199Z,8.58
2019-03-30T07:30:53.296Z,3.08
2019-03-30T07:33:23.358Z,2.92
2019-03-30T07:35:53.344Z,7.53
2019-03-30T07:38:23.392Z,3.30
2019-03-30T07:40:53.480Z,6.10
2019-03-30T07:43:23.541Z,2.90
2019-03-30T07:45:53.710Z,3.25
2019-03-30T07:48:26.175Z,5.33
2019-03-30T07:50:57.335Z,5.17
2019-03-30T07:53:28.088Z,3.58
2019-03-30T07:56:08.302Z,3.22
2019-03-30T07:58:29.760Z,5.05
2019-03-30T08:00:59.944Z,4.33
2019-03-30T08:03:29.900Z,4.35
2019-03-30T08:05:59.804Z,3.45
2019-03-30T08:08:29.914Z,2.77
2019-03-30T08:10:59.909Z,2.63
2019-03-30T08:13:29.759Z,3.37
2019-03-30T08:15:59.628Z,4.55
2019-03-30T08:18:29.543Z,6.60
2019-03-30T08:20:59.377Z,3.83
2019-03-30T08:23:39.774Z,6.10
2019-03-30T08:26:00.795Z,5.00
2019-03-30T08:28:30.647Z,3.60
2019-03-30T08:31:00.520Z,4.17
2019-03-30T08:33:30.366Z,5.63
2019-03-30T08:36:00.295Z,3.40
2019-03-30T08:38:30.193Z,11.10
2019-03-30T08:41:00.024Z,3.77
2019-03-30T08:43:29.818Z,5.07
2019-03-30T08:46:10.345Z,5.43
2019-03-30T08:48:40.513Z,10.03
2019-03-30T08:51:10.540Z,4.27
2019-03-30T08:53:53.749Z,3.83
2019-03-30T08:56:12.210Z,6.43
2019-03-30T08:58:42.169Z,6.33
2019-03-30T09:01:12.299Z,12.27
2019-03-30T09:03:42.481Z,11.47
2019-03-30T09:06:12.536Z,3.50
2019-03-30T09:08:42.527Z,6.73
2019-03-30T09:11:12.447Z,9.17
2019-03-30T09:13:42.449Z,18.00
2019-03-30T09:16:12.434Z,5.70
2019-03-30T09:18:42.531Z,11.90
2019-03-30T09:21:12.592Z,9.17
2019-03-30T09:23:42.661Z,7.73
2019-03-30T09:26:12.732Z,4.50
2019-03-30T09:28:42.718Z,5.13
2019-03-30T09:31:12.825Z,3.70
2019-03-30T09:33:42.744Z,8.47
2019-03-30T09:36:12.689Z,7.50
2019-03-30T09:38:42.707Z,7.07
2019-03-30T09:41:12.744Z,5.67
2019-03-30T09:43:43.589Z,12.87
2019-03-30T09:46:13.741Z,6.00
2019-03-30T09:48:43.754Z,5.67
2019-03-30T09:51:13.786Z,5.30
2019-03-30T09:53:43.867Z,8.57
2019-03-30T09:56:13.831Z,8.67
2019-03-30T09:58:43.962Z,5.23
2019-03-30T10:01:14.010Z,5.67
2019-03-30T10:03:44.029Z,5.37
2019-03-30T10:06:14.123Z,10.60
2019-03-30T10:08:44.253Z,14.93
2019-03-30T10:11:14.225Z,4.60
2019-03-30T10:13:44.219Z,5.60
2019-03-30T10:16:14.919Z,7.23
2019-03-30T10:18:45.094Z,9.03
2019-03-30T10:21:15.195Z,6.73
2019-03-30T10:23:45.299Z,7.87
2019-03-30T10:26:15.300Z,8.10
2019-03-30T10:28:47.095Z,4.37
2019-03-30T10:31:17.121Z,16.33
2019-03-30T10:33:47.241Z,6.30
2019-03-30T10:36:17.419Z,4.47
2019-03-30T10:38:47.561Z,3.70
2019-03-30T10:41:17.723Z,4.33
2019-03-30T10:43:47.966Z,8.17
2019-03-30T10:46:18.045Z,6.97
2019-03-30T10:48:48.104Z,4.13
2019-03-30T10:51:18.236Z,8.80
2019-03-30T10:53:57.217Z,5.17
2019-03-30T10:56:31.848Z,4.90
2019-03-30T10:59:01.979Z,7.27
2019-03-30T11:01:32.013Z,7.23
2019-03-30T11:04:03.406Z,4.87
2019-03-30T11:06:33.355Z,6.50
2019-03-30T11:09:04.563Z,9.93
2019-03-30T11:11:34.599Z,7.43
2019-03-30T11:14:04.617Z,4.83
2019-03-30T11:16:36.641Z,5.33
2019-03-30T11:19:06.526Z,4.70
2019-03-30T11:21:36.827Z,6.40
2019-03-30T11:24:07.063Z,4.13
2019-03-30T11:26:37.157Z,5.03
2019-03-30T11:29:07.135Z,5.17
2019-03-30T11:31:36.962Z,4.47
2019-03-30T11:34:06.890Z,4.93
2019-03-30T11:36:42.761Z,5.87
2019-03-30T11:39:12.535Z,5.60
2019-03-30T11:41:42.487Z,4.40
2019-03-30T11:44:12.298Z,15.33
2019-03-30T11:46:42.263Z,6.47
2019-03-30T11:49:12.106Z,6.50
2019-03-30T11:51:41.856Z,6.57
2019-03-30T11:54:11.585Z,7.70
2019-03-30T11:56:41.440Z,7.30
2019-03-30T11:59:11.274Z,6.90
2019-03-30T12:01:41.212Z,9.40
2019-03-30T12:04:11.109Z,11.70
2019-03-30T12:06:40.929Z,6.60
2019-03-30T12:09:10.916Z,6.77
2019-03-30T12:11:40.909Z,6.77
2019-03-30T12:14:10.859Z,7.20
2019-03-30T12:16:40.834Z,6.00
2019-03-30T12:19:10.681Z,6.27
2019-03-30T12:21:42.143Z,6.00
2019-03-30T12:24:12.033Z,5.50
2019-03-30T12:26:41.895Z,7.37
2019-03-30T12:29:11.702Z,5.60
2019-03-30T12:31:41.524Z,5.63
2019-03-30T12:34:13.061Z,7.07
2019-03-30T12:36:42.966Z,7.17
2019-03-30T12:39:12.771Z,6.97
2019-03-30T12:41:42.638Z,7.43
2019-03-30T12:44:12.495Z,5.40
2019-03-30T12:46:42.654Z,6.67
2019-03-30T12:49:12.714Z,5.23
2019-03-30T12:51:42.545Z,7.00
2019-03-30T12:54:12.520Z,7.83
2019-03-30T12:56:42.868Z,5.23
2019-03-30T12:59:13.224Z,5.43
2019-03-30T13:01:43.481Z,7.13
2019-03-30T13:04:13.677Z,6.50
2019-03-30T13:06:44.026Z,6.33
2019-03-30T13:09:14.216Z,6.33
2019-03-30T13:11:45.517Z,5.73
2019-03-30T13:14:15.822Z,6.80
2019-03-30T13:16:46.122Z,7.10
2019-03-30T13:19:16.815Z,5.53
2019-03-30T13:21:52.826Z,6.23
2019-03-30T13:24:21.140Z,11.57
2019-03-30T13:26:51.999Z,4.80
2019-03-30T13:29:22.292Z,7.20
2019-03-30T13:31:53.506Z,6.10
2019-03-30T13:34:24.882Z,5.70
2019-03-30T13:36:55.193Z,5.57
2019-03-30T13:39:25.447Z,6.80
2019-03-30T13:41:55.686Z,5.17
2019-03-30T13:44:29.948Z,7.70
2019-03-30T13:47:01.013Z,6.40
2019-03-30T13:49:31.560Z,7.43
2019-03-30T13:52:01.812Z,6.70
2019-03-30T13:54:34.833Z,7.20
2019-03-30T13:57:05.728Z,6.40
2019-03-30T13:59:37.032Z,10.20
2019-03-30T14:02:10.269Z,7.43
2019-03-30T14:04:40.548Z,8.00
2019-03-30T14:07:13.433Z,6.60
2019-03-30T14:09:43.751Z,8.13
2019-03-30T14:12:15.023Z,7.53
2019-03-30T14:14:46.964Z,7.30
2019-03-30T14:17:19.963Z,6.30
2019-03-30T14:19:49.964Z,7.00
2019-03-30T14:22:21.065Z,6.57
2019-03-30T14:24:51.580Z,6.33
2019-03-30T14:27:22.874Z,6.67
2019-03-30T14:29:54.564Z,6.13
2019-03-30T14:32:25.919Z,6.20
2019-03-30T14:34:56.315Z,4.93
2019-03-30T14:37:26.193Z,6.10
2019-03-30T14:39:56.034Z,6.70
2019-03-30T15:47:48.966Z,7.03
2019-03-30T15:50:18.791Z,6.03
2019-03-30T15:52:48.599Z,6.40
2019-03-30T15:55:18.418Z,5.83
2019-03-30T15:57:48.331Z,6.20
2019-03-30T16:00:18.835Z,6.20
2019-03-30T16:02:48.692Z,6.30
2019-03-30T16:05:21.645Z,5.70
2019-03-30T16:07:51.725Z,10.80
2019-03-30T16:10:21.544Z,5.77
2019-03-30T16:12:51.338Z,5.23
2019-03-30T16:15:21.938Z,5.97
2019-03-30T16:17:51.699Z,6.93
2019-03-30T16:20:21.556Z,5.70
2019-03-30T16:22:51.387Z,5.93
2019-03-30T16:25:21.171Z,6.60
2019-03-30T16:27:50.989Z,5.67
2019-03-30T16:30:20.804Z,5.80
2019-03-30T16:32:51.260Z,6.70
2019-03-30T16:35:21.284Z,5.00
2019-03-30T16:37:51.177Z,6.73
2019-03-30T16:40:21.046Z,6.63
2019-03-30T16:42:50.893Z,5.40
2019-03-30T16:45:20.828Z,7.70
2019-03-30T16:47:50.783Z,6.23
2019-03-30T16:50:20.822Z,5.20
2019-03-30T16:52:51.318Z,5.90
2019-03-30T16:55:21.354Z,8.20
2019-03-30T16:57:51.191Z,5.53
2019-03-30T17:00:21.205Z,5.00
2019-03-30T17:02:51.509Z,4.13
2019-03-30T17:05:21.483Z,6.07
2019-03-30T17:07:51.447Z,5.27
2019-03-30T17:10:21.263Z,3.80
2019-03-30T17:12:51.208Z,5.87
2019-03-30T17:15:21.330Z,6.40
2019-03-30T17:17:53.193Z,8.27
2019-03-30T17:20:23.448Z,8.93
2019-03-30T17:22:53.477Z,6.17
2019-03-30T17:25:23.540Z,4.83
2019-03-30T17:27:58.570Z,5.07
2019-03-30T17:30:24.939Z,6.20
2019-03-30T17:32:54.713Z,5.27
2019-03-30T17:35:24.536Z,4.87
2019-03-30T17:37:54.420Z,6.40
2019-03-30T17:40:24.788Z,5.40
2019-03-30T17:43:16.791Z,11.00
2019-03-30T17:46:18.751Z,5.07
2019-03-30T17:48:49.644Z,7.90
2019-03-30T17:51:19.679Z,10.90
2019-03-30T17:53:55.334Z,7.40
2019-03-30T17:56:27.247Z,7.43
2019-03-30T17:58:57.304Z,5.37
2019-03-30T18:01:27.386Z,7.00
2019-03-30T18:03:57.727Z,4.90
2019-03-30T18:06:27.732Z,8.80
2019-03-30T18:09:01.770Z,5.53
2019-03-30T18:11:31.789Z,5.00
2019-03-30T18:14:01.833Z,7.67
2019-03-30T18:16:31.803Z,6.33
2019-03-30T18:19:01.916Z,4.20
2019-03-30T18:21:31.972Z,6.00
2019-03-30T18:24:02.110Z,6.93
2019-03-30T18:27:34.557Z,6.27
2019-03-30T18:30:04.715Z,6.00
2019-03-30T18:32:34.704Z,9.60
2019-03-30T18:35:05.112Z,7.80
2019-03-30T18:37:36.507Z,7.03
2019-03-30T18:40:07.113Z,8.33
2019-03-30T18:42:37.063Z,9.27
2019-03-30T18:45:08.846Z,7.73
2019-03-30T18:47:38.695Z,5.07
2019-03-30T18:50:09.223Z,9.47
2019-03-30T18:52:39.468Z,7.03
2019-03-30T18:55:11.106Z,7.17
2019-03-30T18:57:41.229Z,4.97
2019-03-30T19:00:13.751Z,7.77
2019-03-30T19:02:43.841Z,6.97
2019-03-30T19:05:13.658Z,5.27
2019-03-30T19:07:43.525Z,4.90
2019-03-30T19:10:13.375Z,5.70
2019-03-30T19:12:43.233Z,5.10
2019-03-30T19:15:13.317Z,4.90
2019-03-30T19:17:43.048Z,6.03
2019-03-30T19:20:13.012Z,7.37
2019-03-30T19:22:42.755Z,20.80
2019-03-30T19:25:12.642Z,20.43
2019-03-30T19:27:42.350Z,14.63
2019-03-30T19:30:12.857Z,13.63
2019-03-30T19:32:42.653Z,11.10
2019-03-30T19:35:12.515Z,17.27
2019-03-30T19:37:42.351Z,11.83
2019-03-30T19:40:12.378Z,8.40
2019-03-30T19:42:42.263Z,13.20
2019-03-30T19:45:12.510Z,14.23
2019-03-30T19:47:42.226Z,35.57
2019-03-30T19:50:12.340Z,17.60
2019-03-30T19:52:42.156Z,14.40
2019-03-30T19:55:12.052Z,21.80
2019-03-30T19:57:41.853Z,15.87
2019-03-30T20:00:13.363Z,20.23
2019-03-30T20:02:43.186Z,15.17
2019-03-30T20:05:14.012Z,18.23
2019-03-30T20:07:43.896Z,13.00
2019-03-30T20:10:14.179Z,16.63
2019-03-30T20:12:43.971Z,17.63
2019-03-30T20:15:13.779Z,8.50
2019-03-30T20:17:43.494Z,13.50
2019-03-30T20:20:13.300Z,8.43
2019-03-30T20:22:43.133Z,22.33
2019-03-30T20:25:13.334Z,14.60
2019-03-30T20:27:43.111Z,15.67
2019-03-30T20:30:13.324Z,13.43
2019-03-30T20:32:43.296Z,13.10
2019-03-30T20:35:13.318Z,11.67
2019-03-30T20:37:43.223Z,10.90
2019-03-30T20:40:13.492Z,11.50
2019-03-30T20:42:43.289Z,14.57
2019-03-30T20:45:15.369Z,15.77
2019-03-30T20:47:46.464Z,7.27
2019-03-30T20:50:17.105Z,12.70
2019-03-30T20:52:47.158Z,7.97
2019-03-30T20:55:17.032Z,14.43
2019-03-30T20:57:46.864Z,8.03
2019-03-30T21:00:17.274Z,11.53
2019-03-30T21:02:47.215Z,8.87
2019-03-30T21:05:17.051Z,12.03
2019-03-30T21:07:47.061Z,20.97
2019-03-30T21:10:17.110Z,14.10
2019-03-30T21:12:47.019Z,18.93
2019-03-30T21:15:17.054Z,15.50
2019-03-30T21:17:47.864Z,29.43
2019-03-30T21:20:17.915Z,17.77
2019-03-30T21:22:47.881Z,11.10
2019-03-30T21:25:48.074Z,13.50
2019-03-30T21:28:17.892Z,21.68
2019-03-30T21:30:47.726Z,14.00
2019-03-30T21:33:17.557Z,17.50
2019-03-30T21:35:47.321Z,16.87
2019-03-30T21:38:17.238Z,18.92
2019-03-30T21:40:47.274Z,18.67
2019-03-30T21:43:19.671Z,17.23
2019-03-30T21:45:48.666Z,17.52
2019-03-30T21:48:18.540Z,18.23
2019-03-30T21:50:48.429Z,14.98
2019-03-30T21:53:18.346Z,22.98
2019-03-30T21:55:48.353Z,23.27
2019-03-30T21:58:18.316Z,18.45
2019-03-30T22:00:48.291Z,15.05
2019-03-30T22:03:18.107Z,19.62
2019-03-30T22:05:47.967Z,13.80
2019-03-30T22:08:20.268Z,19.27
2019-03-30T22:10:50.160Z,20.10
2019-03-30T22:13:21.654Z,13.53
2019-03-30T22:15:51.739Z,18.67
2019-03-30T22:18:21.587Z,16.00
2019-03-30T22:20:51.450Z,24.25
2019-03-30T22:23:21.227Z,21.37
2019-03-30T22:25:51.115Z,17.98
2019-03-30T22:28:20.961Z,25.88
2019-03-30T22:30:50.729Z,22.65
2019-03-30T22:33:20.602Z,48.80
2019-03-30T22:35:50.435Z,33.33
2019-03-30T22:38:20.414Z,19.63
2019-03-30T22:40:50.448Z,27.75
2019-03-30T22:43:20.335Z,37.38
2019-03-30T22:45:50.223Z,31.17
2019-03-30T22:48:19.985Z,35.20
2019-03-30T22:50:49.719Z,24.67
2019-03-30T22:53:19.568Z,36.77
2019-03-30T22:55:49.431Z,32.28
2019-03-30T22:58:19.239Z,25.05
2019-03-30T23:01:04.566Z,18.67
2019-03-30T23:03:34.285Z,14.70
2019-03-30T23:06:04.093Z,27.87
2019-03-30T23:08:33.823Z,29.55
2019-03-30T23:11:03.539Z,14.70
2019-03-30T23:13:33.400Z,17.80
2019-03-30T23:16:03.234Z,16.23
2019-03-30T23:18:33.025Z,27.42
2019-03-30T23:21:02.813Z,27.60
2019-03-30T23:23:32.821Z,28.00
2019-03-30T23:26:02.682Z,18.50
2019-03-30T23:28:32.386Z,24.92
2019-03-30T23:31:02.128Z,28.45
2019-03-30T23:33:31.934Z,28.07
2019-03-30T23:36:01.917Z,26.65
2019-03-30T23:38:31.673Z,21.40
2019-03-30T23:41:01.385Z,17.85
2019-03-30T23:43:31.097Z,24.43
2019-03-30T23:46:00.859Z,24.67
2019-03-30T23:48:30.631Z,29.10
2019-03-30T23:51:00.347Z,21.27
2019-03-30T23:53:30.144Z,27.35
2019-03-30T23:55:59.874Z,25.88
2019-03-30T23:58:29.733Z,21.97
